Vers la page d'accueil de NAV CANADA Ouverture d'une nouvelle session Chercher sur le site AWWS Clause de non-reponsabilité To the equivalent English page Trucs et astuces FAQ Quoi de neuf sur le site Vers la section Prévisions et observations / NOTAM Vers le site web pour <<Déposer un plan de vol>> Publications et liens importants Mise à jour du profil d'usager Numéros de téléphone des FIC Mes données météo personnelles Données météo de route Données météo régionales Données météo locales Vers la section Prévisions et observations / NOTAM
Requête générée le 2020/07/09 à 10:48:37 UTC. L'information météorologique disponible à ce moment est affichée.

METAR/TAF

Si vous notez des différences entre le METAR/TAF codé et le METAR/TAF en langage clair, veuillez utiliser la version codée. Les bulletins LWIS ne sont pas décodés en langage clair.

OTTAWA/GATINEAU/QC    

LWIS CYND 091000Z AUTO 04003KT 20/19 A2991=

LWIS CYND 090900Z AUTO 00000KT 20/19 A2989=

LWIS CYND 090800Z AUTO 03003KT 350V070 20/20 A2989=

*** REMARQUE : La période de prévision est échue; ceci était le dernier TAF qui a été émis
TAF CYND 081739Z 0818/0901 02009KT P6SM SCT050 TEMPO 0818/0820 2SM +TSRA BR BKN008 OVC040CB FM082000 VRB03KT P6SM SCT050 FM090000 VRB03KT P6SM FEW060 RMK NXT FCST WILL BE ISSUED AT 091245Z=
TAF
LIEU

CYND - OTTAWA/GATINEAU/QC
VALIDITE [UTC]
08 JUL - 1739 à
09 JUL - 0100
 
PERIODES
[UTC]
VENT
[DEGRES VRAIS]
VISIBILITE
[MILLES TERR.]
METEO
NEBULOSITE
[PIEDS AGL]
 
08 JUL - 1800 à
08 JUL - 2000
20 @ 9 NOEUDS
6+
---
5000 EPARS
CHANGEMENTS TEMPORAIRES
08 JUL - 1800 à
08 JUL - 2000
 
2
ORAGE AVEC PLUIE FORTE
BRUME
800 FRAGMENTES
4000 CIEL COUVERT AVEC CUMULONIMBUS
 
08 JUL - 2000 à
09 JUL - 0000
VARIABLE @ 3 NOEUDS
6+
---
5000 EPARS
 
09 JUL - 0000 à
09 JUL - 0100
VARIABLE @ 3 NOEUDS
6+
---
6000 QUELQUES
REMARQUES
LA PREVISION SUIVANTE SERA EMISE A 1245 UTC LE 09


Votre heure Heure UTC
Données météorologiques fournies par Environnement Canada et NAV CANADA